createdAt,value
2023-04-21T07:32:34.747Z,12.60
2023-04-21T07:32:45.889Z,11.50
2023-04-21T07:32:56.082Z,11.50
2023-04-21T07:33:06.092Z,12.50
2023-04-21T07:33:16.254Z,16.80
2023-04-21T07:33:27.758Z,18.70
2023-04-21T07:33:36.607Z,18.50
2023-04-21T07:33:46.727Z,20.50
2023-04-21T07:33:56.652Z,20.60
2023-04-21T07:34:06.801Z,21.60
2023-04-21T07:34:16.874Z,17.20
2023-04-21T07:34:37.909Z,15.00
2023-04-21T07:34:47.322Z,14.10
2023-04-21T07:34:57.414Z,14.10
2023-04-21T07:35:07.673Z,12.20
2023-04-21T07:35:17.632Z,14.40
2023-04-21T07:35:27.910Z,14.20
2023-04-21T07:35:38.170Z,13.70
2023-04-21T07:35:48.074Z,13.40
2023-04-21T07:35:58.116Z,14.30
2023-04-21T07:36:08.303Z,14.10
2023-04-21T07:36:18.377Z,11.30
2023-04-21T07:36:29.962Z,11.00
2023-04-21T07:36:38.687Z,10.50
2023-04-21T07:36:48.774Z,11.70
2023-04-21T07:36:58.854Z,10.20
2023-04-21T07:37:09.096Z,10.70
2023-04-21T07:37:19.101Z,11.10
2023-04-21T07:37:29.325Z,12.10
2023-04-21T07:37:39.325Z,12.90
2023-04-21T07:37:49.542Z,11.80
2023-04-21T07:37:59.737Z,12.10
2023-04-21T07:38:09.851Z,12.80
2023-04-21T07:38:20.040Z,13.60
2023-04-21T07:38:30.515Z,12.80
2023-04-21T07:38:40.220Z,12.40
2023-04-21T07:38:50.400Z,12.30
2023-04-21T07:39:00.428Z,13.50
2023-04-21T07:39:10.618Z,12.90
2023-04-21T07:39:20.920Z,11.50
2023-04-21T07:39:30.889Z,12.70
2023-04-21T07:39:41.016Z,14.00
2023-04-21T07:39:51.009Z,15.30
2023-04-21T07:40:01.364Z,14.20
2023-04-21T07:40:11.467Z,14.60
2023-04-21T07:40:21.439Z,14.50
2023-04-21T07:40:31.580Z,13.50
2023-04-21T07:40:41.602Z,11.30
2023-04-21T07:40:51.885Z,10.50
2023-04-21T07:41:02.016Z,10.60
2023-04-21T07:41:12.277Z,10.20
2023-04-21T07:41:22.286Z,10.30
2023-04-21T07:41:32.352Z,10.40
2023-04-21T07:41:42.414Z,10.80
2023-04-21T07:41:52.662Z,10.60
2023-04-21T07:42:02.595Z,11.00
2023-04-21T07:42:12.869Z,11.80
2023-04-21T07:42:22.877Z,11.50
2023-04-21T07:42:33.143Z,12.10
2023-04-21T07:42:43.091Z,12.30
2023-04-21T07:42:53.297Z,12.40
2023-04-21T07:43:03.402Z,11.10
2023-04-21T07:43:13.606Z,10.70
2023-04-21T07:43:23.582Z,11.20
2023-04-21T07:43:33.748Z,10.50
2023-04-21T07:43:43.964Z,9.90
2023-04-21T07:43:54.283Z,9.70
2023-04-21T07:44:04.240Z,9.90
2023-04-21T07:44:14.379Z,9.90
2023-04-21T07:44:24.420Z,9.60
2023-04-21T07:44:34.684Z,9.80
2023-04-21T07:44:44.753Z,10.10
2023-04-21T07:44:54.742Z,10.80
2023-04-21T07:45:04.940Z,11.00
2023-04-21T07:45:15.116Z,11.10
2023-04-21T07:45:25.127Z,10.90
2023-04-21T07:45:35.223Z,11.50
2023-04-21T07:45:45.362Z,11.60
2023-04-21T07:45:55.441Z,11.60
2023-04-21T07:46:05.532Z,11.60
2023-04-21T07:46:15.738Z,11.80
2023-04-21T07:46:25.823Z,12.80
2023-04-21T07:46:36.061Z,12.70
2023-04-21T07:46:46.331Z,12.60
2023-04-21T07:46:56.388Z,12.50
2023-04-21T07:47:06.384Z,12.90
2023-04-21T07:47:16.655Z,13.00
2023-04-21T07:47:26.736Z,11.70
2023-04-21T07:47:36.748Z,11.20
2023-04-21T07:47:47.132Z,11.50
2023-04-21T07:47:57.135Z,11.40
2023-04-21T07:48:07.216Z,10.70
2023-04-21T07:48:17.306Z,10.60
2023-04-21T07:48:27.373Z,11.10
2023-04-21T07:48:37.630Z,11.10
2023-04-21T07:48:47.704Z,12.00
2023-04-21T07:48:57.862Z,11.60
2023-04-21T07:49:07.881Z,13.30
2023-04-21T07:49:18.293Z,13.80
2023-04-21T07:49:28.168Z,15.20
2023-04-21T07:49:38.259Z,16.00
2023-04-21T07:49:48.405Z,15.50
2023-04-21T07:49:58.610Z,15.10
2023-04-21T07:50:08.617Z,15.00
2023-04-21T07:50:18.938Z,14.90
2023-04-21T07:50:28.802Z,13.80
2023-04-21T07:50:38.900Z,13.30
2023-04-21T07:50:49.061Z,14.80
2023-04-21T07:50:59.233Z,14.70
2023-04-21T07:51:09.255Z,15.30
2023-04-21T07:51:19.491Z,14.90
2023-04-21T07:51:29.605Z,15.40
2023-04-21T07:51:39.757Z,14.70
2023-04-21T07:51:49.961Z,13.50
2023-04-21T07:51:59.913Z,14.40
2023-04-21T07:52:09.942Z,14.70
2023-04-21T07:52:20.181Z,16.10
2023-04-21T07:52:30.354Z,16.90
2023-04-21T07:52:40.458Z,18.40
2023-04-21T07:52:50.558Z,17.60
2023-04-21T07:53:00.546Z,15.80
2023-04-21T07:53:10.655Z,14.50
2023-04-21T07:53:20.817Z,12.90
2023-04-21T07:53:31.031Z,11.30
2023-04-21T07:53:41.126Z,10.20
2023-04-21T07:53:51.152Z,12.80
2023-04-21T07:54:01.464Z,14.40
2023-04-21T07:54:11.504Z,15.20
2023-04-21T07:54:21.588Z,15.70
2023-04-21T07:54:32.260Z,15.50
2023-04-21T07:54:41.849Z,14.90
2023-04-21T07:54:51.866Z,13.00
2023-04-21T07:55:02.050Z,12.50
2023-04-21T07:55:12.149Z,11.80
2023-04-21T07:55:22.215Z,11.10
2023-04-21T07:55:32.443Z,11.70
2023-04-21T07:55:42.530Z,11.20
2023-04-21T07:55:53.038Z,11.50
2023-04-21T07:56:02.700Z,9.80
2023-04-21T07:56:12.802Z,11.30
2023-04-21T07:56:23.022Z,11.80
2023-04-21T07:56:33.014Z,11.90
2023-04-21T07:56:43.186Z,11.80
2023-04-21T07:56:53.383Z,11.20
2023-04-21T07:57:03.495Z,11.00
2023-04-21T07:57:13.637Z,10.00
2023-04-21T07:57:23.706Z,10.10
2023-04-21T07:57:33.803Z,9.40
2023-04-21T07:57:44.032Z,9.40
2023-04-21T07:57:54.161Z,9.50
2023-04-21T07:58:04.187Z,11.00
2023-04-21T07:58:14.332Z,12.40
2023-04-21T07:58:24.589Z,11.70
2023-04-21T07:58:34.612Z,12.90
2023-04-21T07:58:44.799Z,12.70
2023-04-21T07:58:54.941Z,13.70
2023-04-21T07:59:05.825Z,13.10
2023-04-21T07:59:16.051Z,11.30
2023-04-21T07:59:25.372Z,11.40
2023-04-21T07:59:35.487Z,10.40
2023-04-21T07:59:45.670Z,10.90
2023-04-21T07:59:55.725Z,10.40
2023-04-21T08:00:05.839Z,10.10
2023-04-21T08:00:26.069Z,11.80
2023-04-21T08:00:37.215Z,12.40
2023-04-21T08:00:46.389Z,13.90
2023-04-21T08:00:57.328Z,13.80
2023-04-21T08:01:06.738Z,14.20
2023-04-21T08:01:16.824Z,13.20
2023-04-21T08:01:27.011Z,13.60
2023-04-21T08:01:47.154Z,11.40
2023-04-21T08:01:57.250Z,11.50
2023-04-21T08:02:07.388Z,11.50
2023-04-21T08:02:17.513Z,11.20
2023-04-21T08:02:27.666Z,10.60
2023-04-21T08:02:37.832Z,10.50
2023-04-21T08:02:48.039Z,11.30
2023-04-21T08:02:58.080Z,11.30
2023-04-21T08:03:08.536Z,11.40
2023-04-21T08:03:18.467Z,12.60
2023-04-21T08:03:28.494Z,12.50
2023-04-21T08:03:38.846Z,13.20
2023-04-21T08:03:48.765Z,12.70
2023-04-21T08:03:58.764Z,12.40
2023-04-21T08:04:08.877Z,11.90
2023-04-21T08:04:19.188Z,13.20
2023-04-21T08:04:29.254Z,13.50
2023-04-21T08:04:39.513Z,12.80
2023-04-21T08:04:49.511Z,12.90
2023-04-21T08:04:59.563Z,13.20
2023-04-21T08:05:09.908Z,13.20
2023-04-21T08:05:19.898Z,11.40
2023-04-21T08:05:32.667Z,12.00
2023-04-21T08:05:41.536Z,13.10
2023-04-21T08:05:50.794Z,18.30
2023-04-21T08:06:00.724Z,19.20
2023-04-21T08:06:10.768Z,21.00
2023-04-21T08:06:21.300Z,20.70
2023-04-21T08:06:30.866Z,20.80
2023-04-21T08:06:41.046Z,20.30
2023-04-21T08:06:51.302Z,16.10
2023-04-21T08:07:01.850Z,18.00
2023-04-21T08:07:11.449Z,17.90
2023-04-21T08:07:21.688Z,18.60
2023-04-21T08:07:31.734Z,20.10
2023-04-21T08:07:42.031Z,20.40
2023-04-21T08:07:51.857Z,24.80
2023-04-21T08:08:02.027Z,22.90
2023-04-21T08:08:12.184Z,22.40
2023-04-21T08:08:22.310Z,23.40
2023-04-21T08:08:32.444Z,22.30
2023-04-21T08:08:42.586Z,23.70
2023-04-21T08:08:52.711Z,18.90
2023-04-21T08:09:02.866Z,19.40
2023-04-21T08:09:12.978Z,18.30
2023-04-21T08:09:23.238Z,17.80
2023-04-21T08:09:33.122Z,16.90
2023-04-21T08:09:43.165Z,16.00
2023-04-21T08:09:53.272Z,15.60
2023-04-21T08:10:03.475Z,15.20
2023-04-21T08:10:13.554Z,15.70
2023-04-21T08:10:23.770Z,15.90
2023-04-21T08:10:33.940Z,17.50
2023-04-21T08:10:43.931Z,21.20
2023-04-21T08:10:54.124Z,25.00
2023-04-21T08:11:04.228Z,27.90
2023-04-21T08:11:14.272Z,35.80
2023-04-21T08:11:24.377Z,49.90
2023-04-21T08:11:34.495Z,58.10
2023-04-21T08:11:44.575Z,57.20
2023-04-21T08:11:55.210Z,52.10
2023-04-21T08:12:04.843Z,49.60
2023-04-21T08:12:15.021Z,41.90
2023-04-21T08:12:25.227Z,27.70
2023-04-21T08:12:35.236Z,16.90
2023-04-21T08:12:45.370Z,14.40
2023-04-21T08:12:55.431Z,16.00
2023-04-21T08:13:05.548Z,16.10
2023-04-21T08:13:15.613Z,17.70
2023-04-21T08:13:25.788Z,16.30
2023-04-21T08:13:36.109Z,18.00
2023-04-21T08:13:46.227Z,18.20
2023-04-21T08:13:56.159Z,16.60
2023-04-21T08:14:06.363Z,15.80
2023-04-21T08:14:16.357Z,14.10
2023-04-21T08:14:26.501Z,14.00
2023-04-21T08:14:36.636Z,14.80
2023-04-21T08:14:46.767Z,15.10
2023-04-21T08:14:56.907Z,19.00
2023-04-21T08:15:07.130Z,19.50
2023-04-21T08:15:17.194Z,20.50
2023-04-21T08:15:27.300Z,20.40
2023-04-21T08:15:37.482Z,18.00
2023-04-21T08:15:47.666Z,17.70
2023-04-21T08:15:57.921Z,13.80
2023-04-21T08:16:07.942Z,13.70
2023-04-21T08:16:17.966Z,13.20
2023-04-21T08:16:28.186Z,13.70
2023-04-21T08:16:38.204Z,14.00
2023-04-21T08:16:48.350Z,15.00
2023-04-21T08:16:58.563Z,15.20
2023-04-21T08:17:08.680Z,16.20
2023-04-21T08:17:18.714Z,17.10
2023-04-21T08:17:29.274Z,19.50
2023-04-21T08:17:38.871Z,20.50
2023-04-21T08:17:49.023Z,23.70
2023-04-21T08:17:59.238Z,28.70
2023-04-21T08:18:09.333Z,32.50
2023-04-21T08:18:21.649Z,35.10
2023-04-21T08:18:29.656Z,37.50
2023-04-21T08:18:39.603Z,38.00
2023-04-21T08:18:49.773Z,34.20
2023-04-21T08:18:59.896Z,31.50
2023-04-21T08:19:10.134Z,27.20
2023-04-21T08:19:20.475Z,24.90
2023-04-21T08:19:30.835Z,22.50
2023-04-21T08:19:40.498Z,21.20
2023-04-21T08:19:50.668Z,20.10
2023-04-21T08:20:00.641Z,18.00
2023-04-21T08:20:10.847Z,17.00
2023-04-21T08:20:20.960Z,15.50
2023-04-21T08:20:31.187Z,13.10
2023-04-21T08:20:41.215Z,12.00
2023-04-21T08:20:51.459Z,11.20
2023-04-21T08:21:01.514Z,10.50
2023-04-21T08:21:11.573Z,10.30
2023-04-21T08:21:21.668Z,10.70
2023-04-21T08:21:31.934Z,10.60
2023-04-21T08:21:41.873Z,10.50
2023-04-21T08:21:52.105Z,11.50
2023-04-21T08:22:02.239Z,11.60
2023-04-21T08:22:12.291Z,11.90
2023-04-21T08:22:22.354Z,11.70
2023-04-21T08:22:32.542Z,10.70
2023-04-21T08:22:42.656Z,11.20
2023-04-21T08:22:52.811Z,12.20
2023-04-21T08:23:03.041Z,15.60
2023-04-21T08:23:13.250Z,16.50
2023-04-21T08:23:23.169Z,16.50
2023-04-21T08:23:33.374Z,17.70
2023-04-21T08:23:43.400Z,18.40
2023-04-21T08:23:53.616Z,17.70
2023-04-21T08:24:03.665Z,15.80
2023-04-21T08:24:13.955Z,15.00
2023-04-21T08:24:23.882Z,14.60
2023-04-21T08:24:34.124Z,14.20
2023-04-21T08:24:44.279Z,12.90
2023-04-21T08:24:54.387Z,11.80
2023-04-21T08:25:04.435Z,12.20
2023-04-21T08:25:14.586Z,12.00
2023-04-21T08:25:24.799Z,12.40
2023-04-21T08:25:34.883Z,14.50
2023-04-21T08:25:44.958Z,16.40
2023-04-21T08:25:55.225Z,18.70
2023-04-21T08:26:05.187Z,18.30
2023-04-21T08:26:15.456Z,19.70
2023-04-21T08:26:25.488Z,31.10
2023-04-21T08:26:35.681Z,30.20
2023-04-21T08:26:45.711Z,30.00
2023-04-21T08:26:55.895Z,30.50
2023-04-21T08:27:05.844Z,32.50
2023-04-21T08:27:15.987Z,36.10
2023-04-21T08:27:26.207Z,26.00
2023-04-21T08:27:36.276Z,29.30
2023-04-21T08:27:46.451Z,28.80
2023-04-21T08:27:56.602Z,26.60
2023-04-21T08:28:06.643Z,23.30
2023-04-21T08:28:16.763Z,24.20
2023-04-21T08:28:26.794Z,24.60
2023-04-21T08:28:37.151Z,19.90
2023-04-21T08:28:47.224Z,19.90
2023-04-21T08:28:57.251Z,20.00
2023-04-21T08:29:07.290Z,21.00
2023-04-21T08:29:17.548Z,17.10
2023-04-21T08:29:27.650Z,17.50
2023-04-21T08:29:37.869Z,21.60
2023-04-21T08:29:47.930Z,25.30
2023-04-21T08:29:58.014Z,26.10
2023-04-21T08:30:08.125Z,24.40
2023-04-21T08:30:18.290Z,23.40
2023-04-21T08:30:28.330Z,22.60
2023-04-21T08:30:38.569Z,19.50
2023-04-21T08:30:48.520Z,16.70
2023-04-21T08:30:58.977Z,18.30
2023-04-21T08:31:08.854Z,19.90
2023-04-21T08:31:18.923Z,22.60
2023-04-21T08:31:28.986Z,23.20
2023-04-21T08:31:39.215Z,23.30
2023-04-21T08:31:49.329Z,22.20
2023-04-21T08:31:59.589Z,20.40
2023-04-21T08:32:09.781Z,19.20
2023-04-21T08:32:19.799Z,16.90
2023-04-21T08:32:30.065Z,16.40
2023-04-21T08:32:40.123Z,15.60
2023-04-21T08:32:50.319Z,15.90
2023-04-21T08:33:00.239Z,16.80
2023-04-21T08:33:10.625Z,16.60
2023-04-21T08:33:20.747Z,15.50
2023-04-21T08:33:30.751Z,15.60
2023-04-21T08:33:50.103Z,18.40
2023-04-21T08:34:04.352Z,20.10
2023-04-21T08:34:10.954Z,20.50
2023-04-21T08:34:21.391Z,25.00
2023-04-21T08:34:30.701Z,26.00
2023-04-21T08:34:40.737Z,23.60
